Time;durP1;ratioP1;P1;durP2;ratioP2;P2;SDS_P1;SDS_P2;PMS_P1;PMS_P2;Temp;Humidity;BMP_temperature;BMP_pressure;BME280_temperature;BME280_humidity;BME280_pressure;Samples;Min_cycle;Max_cycle;Signal;HPM_P1;HPM_P2
2023/12/31 00:00:13;;;;;;;6.13;3.47;;;8.90;99.90;;;;;;4910625;29;20135;-87
2023/12/31 00:02:40;;;;;;;6.65;3.30;;;8.00;99.90;;;;;;4894619;29;20434;-87
2023/12/31 00:05:06;;;;;;;5.47;2.83;;;8.00;99.90;;;;;;4909868;29;20051;-87
2023/12/31 00:07:46;;;;;;;8.57;2.90;;;8.00;99.90;;;;;;4885084;29;20579;-92
2023/12/31 00:10:12;;;;;;;7.50;2.88;;;9.00;99.90;;;;;;4891617;29;20043;-93
2023/12/31 00:12:41;;;;;;;10.02;2.95;;;8.00;99.90;;;;;;4911458;29;20047;-91
2023/12/31 00:15:10;;;;;;;6.18;2.85;;;8.30;99.90;;;;;;4888359;29;20052;-86
2023/12/31 00:17:42;;;;;;;5.65;2.53;;;8.00;99.90;;;;;;4915890;29;20055;-87
2023/12/31 00:20:11;;;;;;;9.57;2.55;;;8.00;99.90;;;;;;4924090;29;20103;-90
2023/12/31 00:22:37;;;;;;;6.63;2.80;;;8.70;99.90;;;;;;4911952;29;20086;-86
2023/12/31 00:25:03;;;;;;;8.55;2.97;;;8.80;99.90;;;;;;4903049;29;20484;-84
2023/12/31 00:27:31;;;;;;;7.55;2.25;;;8.20;99.90;;;;;;4906107;29;20818;-92
2023/12/31 00:29:57;;;;;;;8.65;2.63;;;8.50;99.90;;;;;;4925978;29;20056;-87
2023/12/31 00:32:28;;;;;;;7.00;2.70;;;8.90;99.90;;;;;;4908265;29;20048;-88
2023/12/31 00:34:56;;;;;;;5.35;2.08;;;8.30;99.90;;;;;;4903206;29;20047;-90
2023/12/31 00:37:22;;;;;;;7.72;2.40;;;9.10;99.90;;;;;;4907722;29;20059;-86
2023/12/31 00:39:48;;;;;;;5.97;2.60;;;8.70;99.90;;;;;;4900127;29;20051;-87
2023/12/31 00:42:13;;;;;;;5.85;2.22;;;9.30;99.90;;;;;;4887452;29;20091;-87
2023/12/31 00:44:39;;;;;;;6.60;2.42;;;9.00;99.90;;;;;;4926828;29;20067;-88
2023/12/31 00:47:05;;;;;;;6.38;2.22;;;8.40;99.90;;;;;;4887953;29;20040;-87
2023/12/31 00:49:33;;;;;;;7.30;2.20;;;8.30;99.90;;;;;;4899992;29;20040;-90
2023/12/31 00:51:59;;;;;;;6.47;2.30;;;8.60;99.90;;;;;;4918966;29;20040;-87
2023/12/31 00:54:25;;;;;;;4.22;1.92;;;8.90;99.90;;;;;;4899085;29;20052;-85
2023/12/31 00:56:53;;;;;;;6.30;2.10;;;9.20;99.90;;;;;;4885711;29;20059;-91
2023/12/31 00:59:18;;;;;;;4.63;2.15;;;8.30;99.90;;;;;;4900519;29;20048;-88
2023/12/31 01:01:44;;;;;;;6.82;2.00;;;8.60;99.90;;;;;;4926085;29;20043;-89
2023/12/31 01:04:10;;;;;;;4.43;2.08;;;8.80;99.90;;;;;;4909123;29;20048;-93
2023/12/31 01:06:47;;;;;;;6.57;2.40;;;9.30;99.90;;;;;;4887653;29;20129;-89
2023/12/31 01:09:13;;;;;;;4.00;1.48;;;9.00;99.90;;;;;;4893192;29;20058;-90
2023/12/31 01:11:39;;;;;;;6.53;2.10;;;9.10;99.90;;;;;;4907862;29;20052;-88
2023/12/31 01:14:05;;;;;;;3.45;1.88;;;8.80;99.90;;;;;;4917352;29;20062;-88
2023/12/31 01:16:33;;;;;;;6.90;1.95;;;8.30;99.90;;;;;;4918297;29;20493;-90
2023/12/31 01:18:59;;;;;;;5.32;1.63;;;8.30;99.90;;;;;;4914137;29;20408;-84
2023/12/31 01:21:25;;;;;;;4.95;1.63;;;8.40;99.90;;;;;;4908893;29;20056;-86
2023/12/31 01:23:51;;;;;;;3.83;1.98;;;8.30;99.90;;;;;;4899518;29;20130;-88
2023/12/31 01:26:19;;;;;;;4.13;1.80;;;9.40;99.90;;;;;;4892031;29;20150;-87
2023/12/31 01:28:45;;;;;;;5.93;1.70;;;8.40;99.90;;;;;;4901679;29;20058;-87
2023/12/31 01:31:22;;;;;;;5.03;1.80;;;9.00;99.90;;;;;;4902173;29;20048;-93
2023/12/31 01:33:57;;;;;;;3.95;1.73;;;8.40;99.90;;;;;;4919575;29;20056;-89
2023/12/31 01:36:24;;;;;;;5.10;1.90;;;9.10;99.90;;;;;;4895065;29;20113;-90
2023/12/31 01:38:59;;;;;;;3.38;1.55;;;9.10;99.90;;;;;;4894353;29;20048;-88
2023/12/31 01:41:29;;;;;;;;;;;8.30;99.90;;;;;;4901200;29;20154;-90
2023/12/31 01:44:07;;;;;;;6.15;1.67;;;8.60;99.90;;;;;;4920484;29;20450;-88
2023/12/31 01:46:34;;;;;;;4.07;1.63;;;8.90;99.90;;;;;;4898366;29;20388;-85
2023/12/31 01:49:00;;;;;;;4.70;1.90;;;9.20;99.90;;;;;;4897748;29;20123;-91
2023/12/31 01:51:35;;;;;;;;;;;8.20;99.90;;;;;;4914311;29;20058;-90
2023/12/31 01:54:04;;;;;;;4.95;1.88;;;7.40;99.90;;;;;;4893244;29;19926;-87
2023/12/31 01:56:35;;;;;;;5.57;1.65;;;8.80;99.90;;;;;;4902064;29;20091;-87
2023/12/31 01:59:03;;;;;;;4.65;2.00;;;8.90;99.90;;;;;;4893852;29;20043;-88
2023/12/31 02:01:35;;;;;;;3.83;1.77;;;9.00;99.90;;;;;;4910923;29;20052;-92
2023/12/31 02:04:06;;;;;;;5.72;1.80;;;8.70;99.90;;;;;;4886746;29;20187;-89
2023/12/31 02:06:35;;;;;;;2.25;1.30;;;8.50;99.90;;;;;;4902052;29;20141;-89
2023/12/31 02:09:10;;;;;;;3.90;1.70;;;8.00;99.90;;;;;;4902860;29;20126;-86
2023/12/31 02:11:39;;;;;;;3.80;1.50;;;8.30;99.90;;;;;;4903294;29;20570;-88
2023/12/31 02:14:07;;;;;;;5.75;1.80;;;8.00;99.90;;;;;;4909597;29;20096;-89
2023/12/31 02:16:36;;;;;;;2.70;1.50;;;7.70;99.90;;;;;;4903030;29;20111;-89
2023/12/31 02:19:09;;;;;;;3.53;1.55;;;7.90;99.90;;;;;;4888564;29;20048;-89
2023/12/31 02:21:35;;;;;;;3.22;1.55;;;8.20;99.90;;;;;;4905072;29;20044;-87
2023/12/31 02:24:01;;;;;;;3.70;1.60;;;8.00;99.90;;;;;;4904470;29;20102;-90
2023/12/31 02:26:35;;;;;;;3.65;1.30;;;7.90;99.90;;;;;;4900928;29;20127;-88
2023/12/31 02:29:00;;;;;;;4.13;1.25;;;8.00;99.90;;;;;;4912045;29;20047;-88
2023/12/31 02:31:37;;;;;;;2.72;1.30;;;8.70;99.90;;;;;;4905952;29;20155;-87
2023/12/31 02:34:11;;;;;;;2.22;1.05;;;8.80;99.90;;;;;;4924761;29;20044;-88
2023/12/31 02:36:36;;;;;;;1.90;1.13;;;8.70;99.90;;;;;;4908708;29;20050;-86
2023/12/31 02:39:02;;;;;;;3.00;1.27;;;8.70;99.90;;;;;;4900071;29;20044;-90
2023/12/31 02:41:34;;;;;;;3.45;1.35;;;7.90;99.90;;;;;;4901181;29;20056;-88
2023/12/31 02:44:03;;;;;;;3.22;1.20;;;8.70;99.90;;;;;;4902650;29;20419;-89
2023/12/31 02:46:31;;;;;;;3.90;1.40;;;8.30;99.90;;;;;;4897583;29;20072;-93
2023/12/31 02:49:06;;;;;;;2.30;1.17;;;8.10;99.90;;;;;;4894048;29;20303;-87
2023/12/31 02:51:32;;;;;;;3.70;1.50;;;7.80;99.90;;;;;;4914141;29;20145;-85
2023/12/31 02:54:04;;;;;;;2.97;1.38;;;8.70;99.90;;;;;;4927104;29;20066;-89
2023/12/31 02:56:41;;;;;;;4.38;1.38;;;7.50;99.90;;;;;;4911347;29;20056;-89
2023/12/31 02:59:10;;;;;;;2.47;1.40;;;8.80;99.90;;;;;;4885817;29;20066;-86
2023/12/31 03:01:38;;;;;;;4.03;1.42;;;8.70;99.90;;;;;;4929651;29;20051;-88
2023/12/31 03:04:07;;;;;;;2.45;1.17;;;7.80;99.90;;;;;;4887668;29;20064;-86
2023/12/31 03:06:40;;;;;;;2.78;1.30;;;8.20;99.90;;;;;;4900112;29;20107;-87
2023/12/31 03:09:14;;;;;;;2.72;1.35;;;7.80;99.90;;;;;;4891770;29;20103;-87
2023/12/31 03:11:45;;;;;;;2.33;1.37;;;7.80;99.90;;;;;;4900882;29;20108;-89
2023/12/31 03:14:15;;;;;;;3.65;1.23;;;7.50;99.90;;;;;;4905760;29;20300;-87
2023/12/31 03:16:52;;;;;;;2.65;1.38;;;7.80;99.90;;;;;;4917199;29;20088;-88
2023/12/31 03:19:18;;;;;;;5.55;1.58;;;7.80;99.90;;;;;;4889133;29;20052;-92
2023/12/31 03:21:44;;;;;;;3.75;1.55;;;8.10;99.90;;;;;;4915585;29;20487;-90
2023/12/31 03:24:31;;;;;;;4.63;1.38;;;7.80;99.90;;;;;;4935671;29;20047;-91
2023/12/31 03:26:59;;;;;;;3.85;1.60;;;7.80;99.90;;;;;;4905700;29;20043;-87
2023/12/31 03:29:26;;;;;;;2.95;1.40;;;8.70;99.90;;;;;;4908306;29;20067;-91
2023/12/31 03:31:52;;;;;;;3.45;1.80;;;8.50;99.90;;;;;;4920807;29;20127;-90
2023/12/31 03:34:21;;;;;;;4.72;1.70;;;8.70;99.90;;;;;;4930718;29;20147;-86
2023/12/31 03:36:47;;;;;;;3.40;1.73;;;7.80;99.90;;;;;;4892472;29;20056;-84
2023/12/31 03:39:14;;;;;;;3.92;1.80;;;8.50;99.90;;;;;;4900701;29;20476;-89
2023/12/31 03:41:40;;;;;;;7.00;1.98;;;7.80;99.90;;;;;;4904120;29;20492;-90
2023/12/31 03:44:06;;;;;;;6.30;1.63;;;7.80;99.90;;;;;;4881183;29;20452;-89
2023/12/31 03:46:50;;;;;;;;;;;;;;;;;;;;;
2023/12/31 03:49:16;;;;;;;4.35;1.85;;;8.10;99.90;;;;;;4905743;29;20063;-91
2023/12/31 03:51:45;;;;;;;6.00;1.98;;;7.80;99.90;;;;;;4913954;29;20112;-89
2023/12/31 03:54:11;;;;;;;5.18;1.92;;;8.80;99.90;;;;;;4890398;29;20139;-86
2023/12/31 03:56:36;;;;;;;3.47;1.60;;;7.90;99.90;;;;;;4924345;29;20152;-87
2023/12/31 03:59:02;;;;;;;3.28;1.73;;;9.00;99.90;;;;;;4884227;29;20044;-88
2023/12/31 04:01:28;;;;;;;4.80;1.70;;;8.90;99.90;;;;;;4887262;29;20130;-88
2023/12/31 04:03:56;;;;;;;3.95;1.67;;;8.50;99.90;;;;;;4892894;29;20111;-90
2023/12/31 04:06:25;;;;;;;5.57;1.83;;;7.40;99.90;;;;;;4905307;29;20048;-87
2023/12/31 04:08:51;;;;;;;6.05;1.63;;;8.50;99.90;;;;;;4899851;29;20116;-85
2023/12/31 04:11:16;;;;;;;3.67;1.63;;;9.10;99.90;;;;;;4906665;29;20447;-84
2023/12/31 04:13:42;;;;;;;3.50;1.60;;;8.20;99.90;;;;;;4922950;29;20435;-90
2023/12/31 04:16:09;;;;;;;2.55;1.50;;;8.90;99.90;;;;;;4902638;29;20052;-85
2023/12/31 04:18:34;;;;;;;3.83;1.48;;;8.90;99.90;;;;;;4885360;29;20056;-86
2023/12/31 04:21:00;;;;;;;4.40;1.50;;;8.10;99.90;;;;;;4905777;29;20049;-87
2023/12/31 04:23:27;;;;;;;3.88;1.45;;;8.70;99.90;;;;;;4904552;29;20044;-88
2023/12/31 04:25:57;;;;;;;3.33;1.42;;;8.80;99.90;;;;;;4912706;29;20059;-87
2023/12/31 04:28:23;;;;;;;3.55;1.50;;;8.10;99.90;;;;;;4931800;29;20047;-88
2023/12/31 04:30:49;;;;;;;5.72;1.77;;;8.10;99.90;;;;;;4929257;29;20047;-87
2023/12/31 04:33:14;;;;;;;4.18;1.50;;;9.00;99.90;;;;;;4893578;29;20067;-89
2023/12/31 04:35:40;;;;;;;4.53;1.38;;;9.10;99.90;;;;;;4919083;29;20052;-88
2023/12/31 04:38:06;;;;;;;4.15;1.50;;;8.10;99.90;;;;;;4926065;29;20102;-88
2023/12/31 04:40:31;;;;;;;5.68;1.60;;;8.10;99.90;;;;;;4910417;29;20043;-89
2023/12/31 04:42:57;;;;;;;5.68;1.83;;;8.60;99.90;;;;;;4908981;29;20055;-88
2023/12/31 04:45:23;;;;;;;5.10;2.20;;;8.10;99.90;;;;;;4899554;29;20122;-86
2023/12/31 04:47:49;;;;;;;3.75;1.67;;;8.10;99.90;;;;;;4908581;29;20709;-92
2023/12/31 04:50:15;;;;;;;5.20;1.92;;;8.50;99.90;;;;;;4886613;29;20052;-86
2023/12/31 04:52:42;;;;;;;2.55;1.30;;;8.10;99.90;;;;;;4909020;29;20059;-88
2023/12/31 04:55:08;;;;;;;3.83;1.52;;;8.50;99.90;;;;;;4907921;29;20182;-85
2023/12/31 04:57:34;;;;;;;4.40;1.33;;;9.00;99.90;;;;;;4921617;29;20060;-88
2023/12/31 04:59:59;;;;;;;4.78;1.63;;;8.10;99.90;;;;;;4905627;29;20040;-88
2023/12/31 05:02:25;;;;;;;3.55;1.70;;;8.60;99.90;;;;;;4913341;29;20091;-87
2023/12/31 05:04:51;;;;;;;4.82;1.52;;;8.10;99.90;;;;;;4908837;29;20715;-87
2023/12/31 05:07:20;;;;;;;3.38;1.60;;;9.00;99.90;;;;;;4929983;29;20040;-87
2023/12/31 05:09:45;;;;;;;4.32;1.60;;;9.10;99.90;;;;;;4904413;29;20052;-87
2023/12/31 05:12:11;;;;;;;4.55;1.75;;;8.50;99.90;;;;;;4923473;29;20123;-88
2023/12/31 05:14:37;;;;;;;5.47;1.73;;;9.00;99.90;;;;;;4911967;29;20135;-88
2023/12/31 05:17:02;;;;;;;3.42;1.52;;;9.10;99.90;;;;;;4895374;29;20044;-86
2023/12/31 05:19:28;;;;;;;5.20;1.70;;;8.10;99.90;;;;;;4920968;29;20044;-85
2023/12/31 05:21:54;;;;;;;5.13;1.70;;;8.10;99.90;;;;;;4920265;29;20064;-86
2023/12/31 05:24:19;;;;;;;3.83;1.60;;;9.00;99.90;;;;;;4903766;29;20146;-87
2023/12/31 05:26:45;;;;;;;3.28;1.90;;;8.80;99.90;;;;;;4912193;29;20118;-88
2023/12/31 05:29:11;;;;;;;3.20;1.58;;;9.10;99.90;;;;;;4922751;29;20052;-88
2023/12/31 05:31:36;;;;;;;4.45;1.58;;;9.10;99.90;;;;;;4917586;29;20042;-85
2023/12/31 05:34:02;;;;;;;2.83;1.45;;;8.60;99.90;;;;;;4910685;29;20063;-88
2023/12/31 05:36:29;;;;;;;3.50;1.77;;;9.00;99.90;;;;;;4905615;29;20044;-88
2023/12/31 05:38:54;;;;;;;4.68;1.77;;;8.60;99.90;;;;;;4890163;29;20115;-92
2023/12/31 05:41:20;;;;;;;5.22;1.80;;;7.90;99.90;;;;;;4905001;29;20689;-86
2023/12/31 05:43:46;;;;;;;4.22;1.67;;;8.90;99.90;;;;;;4937791;29;20051;-89
2023/12/31 05:46:12;;;;;;;4.57;1.70;;;9.00;99.90;;;;;;4921859;29;20040;-89
2023/12/31 05:48:42;;;;;;;2.55;1.60;;;9.10;99.90;;;;;;4910713;29;20072;-86
2023/12/31 05:51:08;;;;;;;6.07;1.92;;;9.10;99.90;;;;;;4903422;29;20049;-86
2023/12/31 05:53:37;;;;;;;4.15;1.58;;;9.00;99.90;;;;;;4919936;29;20076;-86
2023/12/31 05:56:02;;;;;;;6.32;1.77;;;8.10;99.90;;;;;;4917264;29;20602;-89
2023/12/31 05:58:28;;;;;;;4.28;1.50;;;8.10;99.90;;;;;;4919364;29;20052;-87
2023/12/31 06:00:54;;;;;;;5.55;1.83;;;7.40;99.90;;;;;;4894150;29;20052;-87
2023/12/31 06:03:20;;;;;;;3.30;1.80;;;8.30;99.90;;;;;;4887812;29;20088;-88
2023/12/31 06:05:48;;;;;;;5.03;1.70;;;8.80;99.90;;;;;;4901463;29;20050;-86
2023/12/31 06:08:14;;;;;;;6.25;1.77;;;9.00;99.90;;;;;;4933647;29;20063;-88
2023/12/31 06:10:42;;;;;;;4.32;1.92;;;8.50;99.90;;;;;;4921947;29;20083;-89
2023/12/31 06:13:08;;;;;;;2.95;1.55;;;8.00;99.90;;;;;;4921639;29;20098;-88
2023/12/31 06:15:34;;;;;;;2.60;1.65;;;8.10;99.90;;;;;;4925481;29;20048;-87
2023/12/31 06:18:00;;;;;;;3.22;1.63;;;9.00;99.90;;;;;;4910887;29;20051;-89
2023/12/31 06:20:25;;;;;;;3.17;1.50;;;8.70;99.90;;;;;;4910694;29;20044;-92
2023/12/31 06:22:51;;;;;;;4.85;1.77;;;8.60;99.90;;;;;;4909840;29;20059;-87
2023/12/31 06:25:17;;;;;;;4.57;2.00;;;8.10;99.90;;;;;;4889886;29;20048;-87
2023/12/31 06:27:42;;;;;;;3.35;1.50;;;8.00;99.90;;;;;;4905952;29;20063;-87
2023/12/31 06:30:08;;;;;;;5.97;1.92;;;8.90;99.90;;;;;;4914499;29;20047;-87
2023/12/31 06:32:34;;;;;;;3.13;1.75;;;8.00;99.90;;;;;;4922087;29;20409;-89
2023/12/31 06:35:01;;;;;;;4.43;1.90;;;8.40;99.90;;;;;;4914472;29;20047;-85
2023/12/31 06:37:26;;;;;;;3.22;1.55;;;8.90;99.90;;;;;;4931501;29;20054;-88
2023/12/31 06:39:52;;;;;;;3.67;1.52;;;8.80;99.90;;;;;;4904469;29;20055;-86
2023/12/31 06:42:18;;;;;;;2.90;1.58;;;8.00;99.90;;;;;;4895652;29;20055;-88
2023/12/31 06:44:44;;;;;;;3.85;1.60;;;8.00;99.90;;;;;;4890819;29;20055;-88
2023/12/31 06:47:20;;;;;;;6.50;2.20;;;8.90;99.90;;;;;;4912077;29;20040;-89
2023/12/31 06:49:46;;;;;;;3.85;1.85;;;8.00;99.90;;;;;;4904537;29;20111;-88
2023/12/31 06:52:13;;;;;;;3.47;1.88;;;8.90;99.90;;;;;;4915287;29;20048;-88
2023/12/31 06:54:40;;;;;;;3.65;1.83;;;8.90;99.90;;;;;;4922859;29;20059;-89
2023/12/31 06:57:08;;;;;;;4.85;1.88;;;8.70;99.90;;;;;;4903537;29;20052;-88
2023/12/31 06:59:34;;;;;;;3.58;1.85;;;8.80;99.90;;;;;;4892677;29;20048;-91
2023/12/31 07:02:02;;;;;;;3.67;1.83;;;8.90;99.90;;;;;;4904404;29;20083;-89
2023/12/31 07:04:30;;;;;;;7.70;2.40;;;8.90;99.90;;;;;;4892688;29;20145;-87
2023/12/31 07:06:56;;;;;;;4.03;1.95;;;8.30;99.90;;;;;;4922579;29;20449;-88
2023/12/31 07:09:22;;;;;;;4.00;1.80;;;8.90;99.90;;;;;;4910444;29;20476;-87
2023/12/31 07:11:47;;;;;;;6.97;2.28;;;8.80;99.90;;;;;;4923538;29;20082;-85
2023/12/31 07:14:13;;;;;;;3.90;2.10;;;8.40;99.90;;;;;;4902099;29;20812;-85
2023/12/31 07:16:38;;;;;;;6.40;1.85;;;8.00;99.90;;;;;;4889800;29;20063;-88
2023/12/31 07:19:04;;;;;;;3.92;1.92;;;8.70;99.90;;;;;;4884119;29;20055;-87
2023/12/31 07:21:30;;;;;;;3.42;1.98;;;8.50;99.90;;;;;;4909308;29;20062;-89
2023/12/31 07:23:58;;;;;;;5.28;2.22;;;8.40;99.90;;;;;;4909145;29;20047;-86
2023/12/31 07:26:25;;;;;;;6.45;2.33;;;8.00;99.90;;;;;;4888054;29;20147;-87
2023/12/31 07:28:51;;;;;;;3.63;1.83;;;8.80;99.90;;;;;;4891067;29;20050;-89
2023/12/31 07:31:17;;;;;;;5.57;2.30;;;8.30;99.90;;;;;;4899945;29;20048;-85
2023/12/31 07:33:43;;;;;;;3.75;2.10;;;8.10;99.90;;;;;;4908033;29;20051;-90
2023/12/31 07:36:09;;;;;;;4.82;2.50;;;8.80;99.90;;;;;;4900472;29;20056;-87
2023/12/31 07:38:34;;;;;;;4.38;2.10;;;8.10;99.90;;;;;;4918324;29;20059;-87
2023/12/31 07:41:00;;;;;;;5.10;2.17;;;8.10;99.90;;;;;;4901148;29;20044;-86
2023/12/31 07:43:26;;;;;;;5.57;2.30;;;8.70;99.90;;;;;;4914968;29;20052;-90
2023/12/31 07:45:52;;;;;;;4.32;1.98;;;8.10;99.90;;;;;;4924149;29;20052;-87
2023/12/31 07:48:19;;;;;;;3.72;2.20;;;8.80;99.90;;;;;;4884933;29;20048;-86
2023/12/31 07:50:45;;;;;;;5.43;2.10;;;9.00;99.90;;;;;;4900073;29;20155;-88
2023/12/31 07:53:10;;;;;;;4.47;2.40;;;8.80;99.90;;;;;;4917814;29;20052;-87
2023/12/31 07:55:36;;;;;;;4.07;2.13;;;8.90;99.90;;;;;;4906539;29;20087;-86
2023/12/31 07:58:02;;;;;;;4.68;2.30;;;9.10;99.90;;;;;;4899453;29;20080;-90
2023/12/31 08:00:30;;;;;;;5.05;1.90;;;8.20;99.90;;;;;;4901029;29;20044;-86
2023/12/31 08:02:56;;;;;;;5.65;2.13;;;8.30;99.90;;;;;;4900780;29;20054;-87
2023/12/31 08:05:25;;;;;;;3.30;2.13;;;8.30;99.90;;;;;;4915515;29;20105;-89
2023/12/31 08:07:51;;;;;;;4.78;2.05;;;8.80;99.90;;;;;;4888068;29;20055;-92
2023/12/31 08:10:20;;;;;;;4.85;2.30;;;8.30;99.90;;;;;;4906171;29;20137;-91
2023/12/31 08:12:46;;;;;;;4.20;2.15;;;8.20;99.90;;;;;;4887334;29;20411;-88
2023/12/31 08:15:11;;;;;;;4.25;2.35;;;8.60;99.90;;;;;;4895650;29;20055;-87
2023/12/31 08:17:37;;;;;;;7.32;2.13;;;8.30;99.90;;;;;;4908402;29;20087;-86
2023/12/31 08:20:05;;;;;;;4.03;1.90;;;9.30;99.90;;;;;;4910827;29;20047;-88
2023/12/31 08:22:30;;;;;;;4.60;2.20;;;7.90;99.90;;;;;;4895077;29;20119;-86
2023/12/31 08:24:56;;;;;;;4.88;2.30;;;9.00;99.90;;;;;;4918930;29;20084;-89
2023/12/31 08:27:22;;;;;;;4.55;2.25;;;8.80;99.90;;;;;;4895017;29;20050;-87
2023/12/31 08:29:48;;;;;;;4.30;2.13;;;8.40;99.90;;;;;;4913156;29;20492;-86
2023/12/31 08:32:18;;;;;;;3.85;2.28;;;8.80;99.90;;;;;;4927776;29;20047;-88
2023/12/31 08:34:45;;;;;;;3.42;2.00;;;8.40;99.90;;;;;;4907740;29;20127;-86
2023/12/31 08:37:10;;;;;;;3.80;2.08;;;8.40;99.90;;;;;;4913217;29;20107;-87
2023/12/31 08:39:40;;;;;;;5.45;2.40;;;8.50;99.90;;;;;;4924223;29;20056;-87
2023/12/31 08:42:08;;;;;;;3.78;2.00;;;9.00;99.90;;;;;;4928607;29;20052;-85
2023/12/31 08:44:34;;;;;;;3.78;1.90;;;9.10;99.90;;;;;;4891733;29;20054;-85
2023/12/31 08:47:00;;;;;;;4.60;2.15;;;9.40;99.90;;;;;;4890731;29;20123;-87
2023/12/31 08:49:27;;;;;;;5.05;2.40;;;9.30;99.90;;;;;;4906647;29;20044;-84
2023/12/31 08:51:54;;;;;;;4.68;2.50;;;9.40;99.90;;;;;;4924878;29;20051;-88
2023/12/31 08:54:20;;;;;;;4.30;2.42;;;9.10;99.90;;;;;;4906644;29;20091;-84
2023/12/31 08:56:46;;;;;;;4.75;2.00;;;9.30;99.90;;;;;;4929164;29;20136;-94
2023/12/31 08:59:12;;;;;;;4.32;2.47;;;9.40;99.90;;;;;;4909143;29;20062;-85
2023/12/31 09:01:38;;;;;;;4.43;2.08;;;9.50;99.90;;;;;;4933082;29;20059;-85
2023/12/31 09:04:04;;;;;;;5.28;2.00;;;9.00;99.90;;;;;;4904743;29;20115;-86
2023/12/31 09:06:30;;;;;;;6.30;2.20;;;8.60;99.90;;;;;;4922571;29;20040;-88
2023/12/31 09:08:56;;;;;;;5.15;2.45;;;8.70;99.90;;;;;;4931672;29;20118;-85
2023/12/31 09:11:23;;;;;;;4.70;2.13;;;9.30;99.90;;;;;;4895713;29;20092;-88
2023/12/31 09:13:48;;;;;;;5.05;2.30;;;9.50;99.90;;;;;;4920428;29;20135;-87
2023/12/31 09:16:14;;;;;;;3.17;2.00;;;8.60;99.90;;;;;;4920498;29;20076;-89
2023/12/31 09:18:41;;;;;;;7.55;2.33;;;8.60;99.90;;;;;;4926849;29;20048;-85
2023/12/31 09:21:07;;;;;;;5.13;2.15;;;8.70;99.90;;;;;;4927935;29;20048;-84
2023/12/31 09:23:33;;;;;;;4.35;2.17;;;9.20;99.90;;;;;;4926181;29;20059;-87
2023/12/31 09:25:59;;;;;;;6.05;2.50;;;9.50;99.90;;;;;;4911723;29;20040;-87
2023/12/31 09:28:28;;;;;;;4.25;2.20;;;9.30;99.90;;;;;;4894511;29;20143;-87
2023/12/31 09:30:59;;;;;;;4.40;2.20;;;9.80;99.90;;;;;;4909157;29;20062;-86
2023/12/31 09:33:24;;;;;;;4.32;2.13;;;8.80;99.90;;;;;;4918181;29;20091;-87
2023/12/31 09:35:50;;;;;;;3.92;2.25;;;8.80;99.90;;;;;;4893813;29;20090;-87
2023/12/31 09:38:26;;;;;;;3.80;2.10;;;8.80;99.90;;;;;;4908709;29;20044;-85
2023/12/31 09:40:52;;;;;;;3.75;2.00;;;8.80;99.90;;;;;;4920566;29;20035;-86
2023/12/31 09:43:20;;;;;;;4.60;2.42;;;9.70;99.90;;;;;;4928402;29;20103;-87
2023/12/31 09:45:48;;;;;;;3.50;2.20;;;8.80;99.90;;;;;;4900659;29;20048;-86
2023/12/31 09:48:15;;;;;;;4.18;2.58;;;8.80;99.90;;;;;;4910440;29;20055;-85
2023/12/31 09:50:41;;;;;;;4.78;2.20;;;8.90;99.90;;;;;;4928746;29;20091;-86
2023/12/31 09:53:10;;;;;;;4.57;2.63;;;8.90;99.90;;;;;;4911632;29;20606;-90
2023/12/31 09:55:37;;;;;;;4.57;2.40;;;9.10;99.90;;;;;;4893716;29;20178;-86
2023/12/31 09:58:06;;;;;;;6.20;3.00;;;9.60;99.90;;;;;;4897565;29;20052;-89
2023/12/31 10:00:32;;;;;;;4.25;2.30;;;8.90;99.90;;;;;;4925763;29;20180;-86
2023/12/31 10:02:58;;;;;;;5.43;2.60;;;8.90;99.90;;;;;;4928383;29;20135;-88
2023/12/31 10:05:26;;;;;;;7.15;3.00;;;8.90;99.90;;;;;;4936866;29;20094;-87
2023/12/31 10:07:54;;;;;;;3.70;2.45;;;9.50;99.90;;;;;;4910329;29;20055;-86
2023/12/31 10:10:21;;;;;;;5.00;2.40;;;9.60;99.90;;;;;;4896642;29;20531;-87
2023/12/31 10:12:47;;;;;;;6.45;2.63;;;9.70;99.90;;;;;;4928926;29;20444;-86
2023/12/31 10:15:13;;;;;;;5.07;2.78;;;8.90;99.90;;;;;;4893745;29;20484;-86
2023/12/31 10:17:39;;;;;;;4.80;2.85;;;9.00;99.90;;;;;;4925974;29;20046;-84
2023/12/31 10:20:05;;;;;;;4.57;2.60;;;9.80;99.90;;;;;;4916069;29;20043;-86
2023/12/31 10:22:36;;;;;;;6.13;3.10;;;9.10;99.90;;;;;;4909996;29;20051;-86
2023/12/31 10:25:15;;;;;;;6.43;3.25;;;9.10;99.90;;;;;;4925528;29;20040;-87
2023/12/31 10:27:48;;;;;;;5.22;2.50;;;9.10;99.90;;;;;;4909687;29;20568;-87
2023/12/31 10:30:14;;;;;;;4.07;2.40;;;9.90;99.90;;;;;;4925986;29;20052;-84
2023/12/31 10:32:41;;;;;;;7.50;3.10;;;9.90;99.90;;;;;;4912458;29;20051;-88
2023/12/31 10:35:08;;;;;;;5.68;2.60;;;9.90;99.90;;;;;;4911254;29;20072;-85
2023/12/31 10:37:35;;;;;;;8.38;4.30;;;9.20;99.90;;;;;;4926806;29;20043;-89
2023/12/31 10:40:20;;;;;;;4.43;2.60;;;9.30;99.90;;;;;;4906272;29;20507;-87
2023/12/31 10:42:55;;;;;;;5.18;3.00;;;9.20;99.90;;;;;;4892639;29;20107;-86
2023/12/31 10:45:21;;;;;;;;;;;9.20;99.90;;;;;;4909957;29;20190;-86
2023/12/31 10:47:53;;;;;;;6.63;3.22;;;9.20;99.90;;;;;;4926967;29;20405;-87
2023/12/31 10:50:24;;;;;;;5.50;3.03;;;9.80;99.90;;;;;;4930038;29;20132;-85
2023/12/31 10:52:53;;;;;;;4.72;3.00;;;9.90;99.90;;;;;;4908967;29;20162;-88
2023/12/31 10:55:20;;;;;;;5.03;3.20;;;9.20;99.90;;;;;;4908221;29;20420;-86
2023/12/31 10:57:48;;;;;;;7.07;3.20;;;9.80;99.90;;;;;;4913667;29;20126;-90
2023/12/31 11:00:15;;;;;;;7.15;2.83;;;9.80;99.90;;;;;;4916424;29;20075;-92
2023/12/31 11:02:45;;;;;;;5.30;2.80;;;9.30;99.90;;;;;;4909856;29;20620;-88
2023/12/31 11:05:12;;;;;;;5.28;2.88;;;10.00;99.90;;;;;;4925362;29;20044;-87
2023/12/31 11:07:39;;;;;;;6.35;3.20;;;9.30;99.90;;;;;;4926336;29;20163;-88
2023/12/31 11:10:07;;;;;;;8.00;3.30;;;9.60;99.90;;;;;;4910165;29;20083;-91
2023/12/31 11:12:34;;;;;;;5.38;3.00;;;9.30;99.90;;;;;;4921690;29;20913;-86
2023/12/31 11:15:12;;;;;;;6.60;3.47;;;9.40;99.90;;;;;;4907319;29;20096;-90
2023/12/31 11:18:11;;;;;;;5.03;3.40;;;9.20;99.90;;;;;;4921525;29;20586;-84
2023/12/31 11:21:07;;;;;;;6.82;3.38;;;9.20;99.90;;;;;;4902691;29;20048;-88
2023/12/31 11:23:56;;;;;;;6.65;3.22;;;9.20;99.90;;;;;;4908066;29;20455;-86
2023/12/31 11:26:24;;;;;;;5.80;3.28;;;9.50;99.90;;;;;;4925845;29;20052;-86
2023/12/31 11:28:50;;;;;;;4.80;2.75;;;9.60;99.90;;;;;;4904138;29;20107;-87
2023/12/31 11:31:16;;;;;;;6.05;2.92;;;9.20;99.90;;;;;;4908475;29;20500;-85
2023/12/31 11:33:43;;;;;;;3.65;1.75;;;9.30;99.90;;;;;;4920751;29;20047;-86
2023/12/31 11:36:13;;;;;;;2.15;1.00;;;9.40;99.90;;;;;;4926395;29;20063;-85
2023/12/31 11:38:57;;;;;;;2.22;1.10;;;9.80;99.90;;;;;;4923106;29;20052;-86
2023/12/31 11:41:42;;;;;;;1.92;0.85;;;8.90;99.90;;;;;;4924788;29;20047;-87
2023/12/31 11:44:08;;;;;;;1.55;0.85;;;8.80;99.90;;;;;;4903654;29;20454;-86
2023/12/31 11:46:42;;;;;;;1.60;0.82;;;9.00;99.90;;;;;;4924328;29;20055;-85
2023/12/31 11:49:10;;;;;;;1.88;0.65;;;9.30;99.90;;;;;;4906305;29;20048;-85
2023/12/31 11:52:04;;;;;;;4.15;1.00;;;9.30;99.90;;;;;;4906102;29;20131;-86
2023/12/31 11:54:37;;;;;;;1.58;0.57;;;8.50;99.90;;;;;;4922306;29;20063;-89
2023/12/31 11:57:03;;;;;;;1.67;0.63;;;8.40;99.90;;;;;;4907561;29;20048;-89
2023/12/31 11:59:34;;;;;;;2.08;0.70;;;8.30;99.90;;;;;;4892325;29;20508;-86
2023/12/31 12:02:01;;;;;;;2.40;0.63;;;8.30;99.90;;;;;;4882526;29;20062;-87
2023/12/31 12:04:27;;;;;;;2.00;0.50;;;8.20;99.90;;;;;;4897819;29;20055;-83
2023/12/31 12:06:53;;;;;;;1.95;0.50;;;8.60;99.90;;;;;;4906359;29;20412;-91
2023/12/31 12:09:26;;;;;;;2.83;0.40;;;8.20;99.90;;;;;;4908703;29;20941;-86
2023/12/31 12:11:56;;;;;;;2.08;0.30;;;8.60;99.90;;;;;;4925637;29;20040;-89
2023/12/31 12:14:22;;;;;;;1.35;0.40;;;8.20;99.90;;;;;;4922517;29;20052;-91
2023/12/31 12:16:48;;;;;;;1.33;0.60;;;8.90;99.90;;;;;;4889732;29;20100;-87
2023/12/31 12:19:14;;;;;;;1.65;0.50;;;8.70;99.90;;;;;;4907186;29;20051;-85
2023/12/31 12:21:41;;;;;;;0.77;0.40;;;8.80;99.90;;;;;;4893087;29;20052;-86
2023/12/31 12:24:08;;;;;;;1.05;0.50;;;9.30;99.90;;;;;;4925638;29;20047;-84
2023/12/31 12:26:36;;;;;;;1.98;0.70;;;8.50;99.90;;;;;;4925833;29;20040;-85
2023/12/31 12:29:02;;;;;;;2.50;0.85;;;9.40;99.90;;;;;;4893808;29;20084;-84
2023/12/31 12:31:35;;;;;;;3.15;0.90;;;8.60;99.90;;;;;;4899593;29;20091;-87
2023/12/31 12:34:07;;;;;;;2.72;0.70;;;8.60;99.90;;;;;;4910419;29;20050;-89
2023/12/31 12:36:33;;;;;;;2.78;1.00;;;8.20;99.90;;;;;;4925234;29;20103;-87
2023/12/31 12:39:05;;;;;;;1.70;0.82;;;9.50;99.90;;;;;;4920341;29;20051;-87
2023/12/31 12:41:33;;;;;;;1.20;0.57;;;9.30;99.90;;;;;;4890571;29;20602;-88
2023/12/31 12:44:00;;;;;;;1.63;0.73;;;9.50;99.90;;;;;;4906356;29;20112;-87
2023/12/31 12:46:30;;;;;;;1.95;0.63;;;9.70;99.90;;;;;;4926962;29;20380;-88
2023/12/31 12:48:57;;;;;;;3.55;0.80;;;8.30;99.90;;;;;;4905095;29;20056;-85
2023/12/31 12:51:23;;;;;;;1.20;0.63;;;8.70;99.90;;;;;;4923925;29;20127;-88
2023/12/31 12:53:50;;;;;;;4.32;0.90;;;8.80;99.90;;;;;;4905701;29;20058;-84
2023/12/31 12:56:17;;;;;;;2.45;0.90;;;9.40;99.90;;;;;;4922043;29;20056;-85
2023/12/31 12:58:44;;;;;;;3.00;0.90;;;8.70;99.90;;;;;;4920623;29;20040;-88
2023/12/31 13:01:10;;;;;;;1.77;0.80;;;9.20;99.90;;;;;;4924878;29;20048;-84